createdAt,value
2018-08-03T00:00:32.100Z,10.67
2018-08-03T00:01:35.502Z,11.70
2018-08-03T00:02:39.082Z,16.00
2018-08-03T00:03:42.406Z,11.33
2018-08-03T00:04:45.719Z,10.80
2018-08-03T00:05:49.131Z,11.60
2018-08-03T00:06:52.458Z,14.27
2018-08-03T00:07:55.797Z,14.83
2018-08-03T00:08:59.131Z,12.97
2018-08-03T00:10:02.493Z,13.00
2018-08-03T00:11:05.866Z,14.37
2018-08-03T00:12:09.232Z,10.43
2018-08-03T00:13:12.572Z,15.63
2018-08-03T00:14:15.906Z,10.53
2018-08-03T00:15:19.249Z,9.97
2018-08-03T00:16:22.614Z,10.23
2018-08-03T00:17:25.927Z,10.40
2018-08-03T00:18:29.255Z,9.80
2018-08-03T00:19:32.595Z,12.10
2018-08-03T00:20:35.919Z,9.70
2018-08-03T00:21:39.282Z,10.33
2018-08-03T00:22:42.603Z,9.50
2018-08-03T00:23:45.958Z,9.70
2018-08-03T00:24:49.374Z,10.73
2018-08-03T00:25:52.756Z,10.20
2018-08-03T00:26:56.071Z,9.43
2018-08-03T00:27:59.401Z,12.60
2018-08-03T00:29:02.734Z,10.17
2018-08-03T00:30:06.612Z,10.00
2018-08-03T00:31:09.979Z,10.40
2018-08-03T00:32:13.360Z,12.37
2018-08-03T00:33:16.783Z,9.30
2018-08-03T00:34:20.140Z,11.27
2018-08-03T00:35:23.502Z,12.27
2018-08-03T00:36:26.831Z,9.93
2018-08-03T00:37:30.176Z,18.07
2018-08-03T00:38:33.558Z,10.63
2018-08-03T00:39:36.924Z,13.47
2018-08-03T00:40:40.252Z,9.90
2018-08-03T00:41:43.576Z,19.30
2018-08-03T00:42:46.906Z,15.53
2018-08-03T00:43:50.464Z,10.60
2018-08-03T00:44:53.830Z,14.07
2018-08-03T00:45:57.134Z,10.20
2018-08-03T00:47:00.434Z,10.70
2018-08-03T00:48:03.773Z,11.30
2018-08-03T00:49:07.159Z,10.87
2018-08-03T00:50:10.479Z,13.40
2018-08-03T00:51:13.815Z,10.27
2018-08-03T00:52:17.130Z,10.87
2018-08-03T00:53:20.447Z,11.03
2018-08-03T00:54:23.786Z,11.13
2018-08-03T00:55:27.106Z,10.77
2018-08-03T00:56:30.477Z,13.57
2018-08-03T00:57:33.822Z,14.50
2018-08-03T00:58:37.155Z,17.13
2018-08-03T00:59:40.498Z,11.23
2018-08-03T01:00:43.848Z,14.27
2018-08-03T01:01:47.177Z,11.40
2018-08-03T01:02:50.528Z,11.30
2018-08-03T01:03:53.897Z,11.20
2018-08-03T01:04:57.225Z,12.43
2018-08-03T01:06:00.567Z,18.23
2018-08-03T01:07:03.929Z,10.10
2018-08-03T01:08:07.593Z,13.20
2018-08-03T01:09:12.430Z,14.23
2018-08-03T01:10:15.775Z,12.47
2018-08-03T01:11:19.122Z,17.07
2018-08-03T01:12:22.502Z,12.70
2018-08-03T01:13:25.863Z,14.20
2018-08-03T01:14:29.203Z,13.43
2018-08-03T01:15:32.552Z,12.50
2018-08-03T01:16:41.819Z,15.03
2018-08-03T01:17:45.191Z,11.93
2018-08-03T01:18:48.554Z,15.50
2018-08-03T01:19:51.887Z,13.07
2018-08-03T01:20:55.554Z,12.60
2018-08-03T01:21:58.878Z,14.97
2018-08-03T01:23:02.210Z,14.20
2018-08-03T01:24:05.919Z,11.40
2018-08-03T01:25:09.258Z,14.00
2018-08-03T01:26:12.639Z,12.80
2018-08-03T01:27:15.975Z,16.63
2018-08-03T01:28:19.515Z,13.47
2018-08-03T01:29:22.829Z,14.17
2018-08-03T01:30:26.166Z,13.10
2018-08-03T01:31:29.534Z,12.97
2018-08-03T01:32:32.883Z,11.80
2018-08-03T01:33:36.223Z,16.37
2018-08-03T01:34:39.602Z,14.77
2018-08-03T01:35:42.966Z,13.43
2018-08-03T01:36:46.314Z,14.03
2018-08-03T01:37:49.749Z,15.83
2018-08-03T01:38:53.054Z,11.67
2018-08-03T01:39:56.420Z,16.00
2018-08-03T01:40:59.786Z,13.90
2018-08-03T01:42:03.129Z,12.50
2018-08-03T01:43:06.703Z,18.30
2018-08-03T01:44:10.026Z,13.20
2018-08-03T01:45:13.363Z,14.90
2018-08-03T01:46:16.734Z,12.80
2018-08-03T01:47:20.068Z,14.23
2018-08-03T01:48:23.420Z,13.50
2018-08-03T01:49:26.780Z,15.70
2018-08-03T01:50:30.125Z,14.00
2018-08-03T01:51:33.486Z,13.33
2018-08-03T01:52:36.854Z,15.50
2018-08-03T01:53:40.551Z,14.03
2018-08-03T01:54:43.961Z,13.87
2018-08-03T01:55:47.290Z,13.70
2018-08-03T01:56:50.667Z,13.20
2018-08-03T01:57:54.022Z,11.07
2018-08-03T01:58:57.383Z,16.43
2018-08-03T02:00:00.716Z,11.70
2018-08-03T02:01:04.043Z,11.27
2018-08-03T02:02:07.406Z,13.27
2018-08-03T02:03:10.930Z,13.67
2018-08-03T02:04:14.215Z,16.10
2018-08-03T02:05:17.555Z,12.17
2018-08-03T02:06:20.894Z,12.07
2018-08-03T02:07:24.234Z,13.53
2018-08-03T02:08:27.602Z,14.40
2018-08-03T02:09:30.929Z,15.67
2018-08-03T02:10:34.536Z,15.23
2018-08-03T02:11:38.122Z,11.53
2018-08-03T02:12:41.443Z,13.73
2018-08-03T02:13:44.826Z,18.23
2018-08-03T02:14:48.198Z,13.60
2018-08-03T02:15:51.530Z,12.00
2018-08-03T02:16:54.882Z,14.13
2018-08-03T02:17:58.210Z,14.00
2018-08-03T02:19:01.619Z,16.87
2018-08-03T02:20:05.795Z,13.00
2018-08-03T02:21:09.123Z,12.50
2018-08-03T02:22:12.456Z,14.00
2018-08-03T02:23:15.809Z,13.20
2018-08-03T02:24:19.171Z,11.83
2018-08-03T02:25:29.188Z,13.00
2018-08-03T02:26:32.552Z,15.83
2018-08-03T02:27:35.914Z,16.90
2018-08-03T02:28:39.264Z,13.27
2018-08-03T02:29:42.606Z,11.30
2018-08-03T02:30:46.050Z,14.10
2018-08-03T02:31:49.379Z,12.03
2018-08-03T02:32:52.746Z,12.47
2018-08-03T02:33:56.088Z,15.67
2018-08-03T02:34:59.395Z,13.93
2018-08-03T02:36:02.756Z,18.37
2018-08-03T02:37:06.133Z,17.90
2018-08-03T02:38:09.459Z,17.20
2018-08-03T02:39:13.207Z,14.17
2018-08-03T02:40:16.524Z,13.33
2018-08-03T02:41:19.853Z,15.53
2018-08-03T02:42:23.215Z,14.60
2018-08-03T02:43:26.630Z,16.07
2018-08-03T02:44:29.939Z,14.00
2018-08-03T02:45:33.251Z,15.93
2018-08-03T02:46:36.641Z,16.77
2018-08-03T02:47:39.996Z,18.83
2018-08-03T02:48:43.326Z,13.43
2018-08-03T02:49:46.686Z,24.93
2018-08-03T02:50:50.068Z,17.93
2018-08-03T02:51:53.392Z,14.37
2018-08-03T02:52:56.809Z,16.40
2018-08-03T02:54:00.286Z,15.50
2018-08-03T02:55:03.679Z,24.17
2018-08-03T02:56:07.076Z,19.43
2018-08-03T02:57:10.416Z,17.93
2018-08-03T02:58:13.753Z,18.37
2018-08-03T02:59:17.071Z,15.27
2018-08-03T03:00:20.448Z,16.13
2018-08-03T03:01:23.770Z,16.90
2018-08-03T03:02:27.085Z,13.73
2018-08-03T03:03:30.463Z,15.33
2018-08-03T03:04:33.790Z,17.00
2018-08-03T03:05:37.182Z,17.87
2018-08-03T03:06:40.517Z,18.37
2018-08-03T03:07:43.895Z,18.03
2018-08-03T03:08:47.271Z,14.77
2018-08-03T03:09:50.847Z,16.57
2018-08-03T03:10:54.255Z,17.20
2018-08-03T03:11:57.587Z,15.40
2018-08-03T03:13:00.924Z,19.07
2018-08-03T03:14:04.397Z,14.77
2018-08-03T03:15:07.991Z,14.07
2018-08-03T03:16:11.358Z,15.07
2018-08-03T03:17:14.685Z,16.83
2018-08-03T03:18:18.078Z,15.47
2018-08-03T03:19:21.453Z,15.53
2018-08-03T03:20:24.782Z,22.50
2018-08-03T03:21:28.099Z,15.40
2018-08-03T03:22:31.440Z,17.53
2018-08-03T03:23:34.800Z,15.73
2018-08-03T03:24:38.123Z,15.93
2018-08-03T03:25:41.453Z,18.13
2018-08-03T03:26:45.184Z,16.50
2018-08-03T03:27:48.514Z,20.27
2018-08-03T03:28:51.862Z,20.33
2018-08-03T03:29:55.183Z,15.27
2018-08-03T03:30:58.583Z,18.83
2018-08-03T03:32:01.924Z,17.10
2018-08-03T03:33:05.259Z,16.80
2018-08-03T03:34:08.709Z,17.50
2018-08-03T03:35:12.079Z,16.70
2018-08-03T03:36:15.428Z,17.87
2018-08-03T03:37:18.811Z,16.23
2018-08-03T03:38:22.138Z,16.77
2018-08-03T03:39:25.502Z,19.87
2018-08-03T03:40:28.864Z,19.37
2018-08-03T03:41:32.186Z,18.03
2018-08-03T03:42:35.527Z,16.60
2018-08-03T03:43:38.921Z,19.77
2018-08-03T03:44:42.259Z,16.93
2018-08-03T03:45:45.635Z,16.53
2018-08-03T03:46:48.974Z,16.93
2018-08-03T03:47:52.295Z,15.90
2018-08-03T03:48:55.635Z,17.63
2018-08-03T03:49:58.970Z,17.53
2018-08-03T03:51:02.384Z,19.53
2018-08-03T03:52:05.686Z,16.90
2018-08-03T03:53:09.048Z,20.27
2018-08-03T03:54:12.408Z,17.40
2018-08-03T03:55:15.745Z,15.10
2018-08-03T03:56:19.094Z,15.90
2018-08-03T03:57:22.426Z,16.10
2018-08-03T03:58:25.774Z,16.13
2018-08-03T03:59:29.126Z,15.60
2018-08-03T04:00:32.516Z,13.23
2018-08-03T04:01:35.827Z,16.47
2018-08-03T04:02:39.174Z,14.07
2018-08-03T04:03:42.555Z,16.27
2018-08-03T04:04:45.829Z,16.97
2018-08-03T04:05:49.190Z,13.47
2018-08-03T04:06:52.520Z,13.00
2018-08-03T04:07:55.838Z,14.53
2018-08-03T04:08:59.191Z,13.73
2018-08-03T04:10:02.521Z,16.90
2018-08-03T04:11:05.995Z,14.57
2018-08-03T04:12:09.224Z,11.33
2018-08-03T04:13:12.571Z,14.57
2018-08-03T04:14:15.952Z,14.20
2018-08-03T04:15:19.310Z,23.10
2018-08-03T04:16:22.626Z,17.37
2018-08-03T04:17:25.944Z,13.63
2018-08-03T04:18:29.304Z,14.60
2018-08-03T04:19:32.632Z,14.60
2018-08-03T04:20:36.031Z,18.80
2018-08-03T04:21:39.066Z,23.17
2018-08-03T04:22:42.435Z,13.67
2018-08-03T04:23:45.746Z,15.80
2018-08-03T04:24:49.067Z,15.03
2018-08-03T04:25:52.412Z,16.07
2018-08-03T04:26:55.742Z,15.40
2018-08-03T04:27:59.050Z,13.57
2018-08-03T04:29:02.350Z,13.90
2018-08-03T04:30:06.189Z,14.37
2018-08-03T04:31:09.530Z,14.87
2018-08-03T04:32:12.864Z,14.83
2018-08-03T04:33:16.191Z,15.67
2018-08-03T04:34:19.564Z,14.53
2018-08-03T04:35:22.877Z,16.80
2018-08-03T04:36:26.311Z,14.50
2018-08-03T04:37:29.624Z,18.77
2018-08-03T04:38:32.938Z,16.90
2018-08-03T04:39:36.250Z,16.80
2018-08-03T04:40:39.706Z,15.83
2018-08-03T04:41:43.069Z,12.53
2018-08-03T04:42:46.379Z,16.57
2018-08-03T04:43:49.705Z,16.30
2018-08-03T04:44:53.108Z,14.10
2018-08-03T04:45:56.472Z,15.17
2018-08-03T04:46:59.779Z,18.77
2018-08-03T04:48:03.118Z,16.80
2018-08-03T04:49:06.439Z,18.17
2018-08-03T04:50:09.770Z,16.70
2018-08-03T04:51:13.122Z,16.50
2018-08-03T04:52:16.431Z,17.63
2018-08-03T04:53:19.766Z,14.07
2018-08-03T04:54:23.083Z,14.30
2018-08-03T04:55:26.433Z,15.27
2018-08-03T04:56:29.742Z,19.00
2018-08-03T04:57:33.066Z,19.37
2018-08-03T04:58:36.374Z,21.00
2018-08-03T04:59:39.716Z,19.67
2018-08-03T05:00:43.056Z,17.60
2018-08-03T05:01:46.417Z,17.70
2018-08-03T05:02:49.726Z,19.27
2018-08-03T05:03:53.097Z,15.83
2018-08-03T05:04:56.462Z,22.13
2018-08-03T05:05:59.833Z,16.90
2018-08-03T05:07:03.203Z,16.73
2018-08-03T05:08:06.554Z,21.03
2018-08-03T05:09:09.911Z,18.80
2018-08-03T05:10:13.238Z,19.83
2018-08-03T05:11:16.586Z,16.53
2018-08-03T05:12:19.942Z,16.10
2018-08-03T05:13:23.268Z,19.83
2018-08-03T05:14:26.590Z,23.00
2018-08-03T05:15:29.937Z,20.30
2018-08-03T05:16:33.250Z,19.97
2018-08-03T05:17:36.942Z,17.60
2018-08-03T05:18:40.268Z,15.57
2018-08-03T05:19:43.603Z,21.03
2018-08-03T05:20:46.948Z,19.93
2018-08-03T05:21:50.364Z,15.20
2018-08-03T05:22:53.747Z,15.40
2018-08-03T05:23:57.078Z,16.50
2018-08-03T05:25:00.502Z,15.13
2018-08-03T05:26:03.868Z,17.17
2018-08-03T05:27:07.236Z,18.07
2018-08-03T05:28:10.582Z,16.00
2018-08-03T05:29:13.913Z,18.33
2018-08-03T05:30:17.274Z,20.23
2018-08-03T05:31:20.650Z,22.23
2018-08-03T05:32:23.974Z,17.40
2018-08-03T05:33:27.298Z,17.97
2018-08-03T05:34:30.643Z,22.57
2018-08-03T05:35:34.030Z,23.30
2018-08-03T05:36:37.397Z,16.20
2018-08-03T05:37:40.730Z,17.87
2018-08-03T05:38:44.051Z,19.80
2018-08-03T05:39:47.382Z,17.40
2018-08-03T05:40:50.747Z,15.43
2018-08-03T05:41:54.072Z,14.27
2018-08-03T05:42:57.400Z,15.47
2018-08-03T05:44:00.736Z,21.13
2018-08-03T05:45:04.546Z,18.40
2018-08-03T05:46:08.028Z,16.63
2018-08-03T05:47:11.420Z,18.80
2018-08-03T05:48:14.763Z,18.90
2018-08-03T05:49:18.099Z,20.10
2018-08-03T05:50:21.515Z,24.80
2018-08-03T05:51:24.821Z,18.37
2018-08-03T05:52:28.227Z,18.70
2018-08-03T05:53:31.568Z,17.23
2018-08-03T05:54:34.903Z,17.60
2018-08-03T05:55:38.246Z,18.80
2018-08-03T05:56:41.587Z,26.30
2018-08-03T05:57:44.971Z,24.37
2018-08-03T05:58:48.312Z,18.23
2018-08-03T05:59:51.695Z,17.27
2018-08-03T06:00:55.108Z,16.77
2018-08-03T06:01:58.459Z,15.87
2018-08-03T06:03:01.797Z,18.07
2018-08-03T06:04:05.248Z,17.90
2018-08-03T06:05:08.953Z,22.13
2018-08-03T06:06:12.347Z,19.20
2018-08-03T06:07:15.670Z,17.07
2018-08-03T06:08:19.080Z,18.37
2018-08-03T06:09:22.403Z,18.20
2018-08-03T06:10:25.724Z,18.80
2018-08-03T06:11:29.079Z,18.10
2018-08-03T06:12:32.563Z,19.10
2018-08-03T06:13:35.924Z,18.50
2018-08-03T06:14:39.276Z,20.30
2018-08-03T06:15:42.627Z,17.60
2018-08-03T06:16:45.953Z,19.70
2018-08-03T06:17:49.291Z,25.77
2018-08-03T06:18:52.703Z,16.53
2018-08-03T06:19:56.079Z,15.57
2018-08-03T06:20:59.434Z,17.40
2018-08-03T06:22:02.785Z,22.10
2018-08-03T06:23:06.280Z,21.50
2018-08-03T06:24:09.597Z,15.77
2018-08-03T06:25:12.954Z,16.90
2018-08-03T06:26:16.282Z,16.70
2018-08-03T06:27:19.607Z,16.57
2018-08-03T06:28:22.986Z,16.60
2018-08-03T06:29:26.390Z,17.93
2018-08-03T06:30:29.676Z,18.13
2018-08-03T06:31:33.019Z,17.80
2018-08-03T06:32:36.786Z,17.77
2018-08-03T06:33:40.114Z,16.10
2018-08-03T06:34:43.500Z,16.83
2018-08-03T06:35:46.889Z,14.90
2018-08-03T06:36:50.231Z,18.47
2018-08-03T06:37:53.550Z,22.03
2018-08-03T06:38:56.883Z,19.53
2018-08-03T06:40:00.250Z,18.07
2018-08-03T06:41:03.694Z,18.10
2018-08-03T06:42:07.056Z,20.10
2018-08-03T06:43:10.470Z,13.80
2018-08-03T06:44:13.799Z,18.10
2018-08-03T06:45:17.156Z,16.60
2018-08-03T06:46:20.498Z,18.80
2018-08-03T06:47:23.843Z,15.63
2018-08-03T06:48:27.211Z,20.80
2018-08-03T06:49:30.587Z,17.70
2018-08-03T06:50:33.966Z,14.97
2018-08-03T06:51:37.311Z,15.80
2018-08-03T06:52:40.667Z,16.80
2018-08-03T06:53:44.077Z,14.03
2018-08-03T06:54:47.430Z,18.97
2018-08-03T06:55:50.804Z,16.20
2018-08-03T06:56:54.192Z,18.30
2018-08-03T06:57:57.538Z,17.23
2018-08-03T06:59:00.911Z,15.80
2018-08-03T07:00:04.947Z,19.47
2018-08-03T07:01:08.443Z,22.20
2018-08-03T07:02:11.891Z,17.30
2018-08-03T07:03:15.215Z,14.67
2018-08-03T07:04:18.554Z,17.37
2018-08-03T07:05:21.926Z,17.40
2018-08-03T07:06:25.266Z,14.87
2018-08-03T07:07:28.657Z,14.43
2018-08-03T07:08:32.039Z,14.50
2018-08-03T07:09:35.365Z,12.03
2018-08-03T07:10:38.693Z,12.33
2018-08-03T07:11:42.066Z,12.13
2018-08-03T07:12:45.416Z,12.33
2018-08-03T07:13:48.795Z,11.93
2018-08-03T07:14:52.164Z,13.10
2018-08-03T07:15:55.488Z,11.97
2018-08-03T07:17:05.202Z,12.30
2018-08-03T07:18:08.849Z,14.93
2018-08-03T07:19:12.198Z,13.97
2018-08-03T07:20:15.557Z,14.77
2018-08-03T07:21:24.400Z,13.60
2018-08-03T07:22:27.743Z,12.00
2018-08-03T07:23:31.071Z,14.80
2018-08-03T07:24:34.440Z,14.00
2018-08-03T07:25:37.807Z,11.93
2018-08-03T07:26:41.146Z,14.07
2018-08-03T07:27:44.487Z,12.30
2018-08-03T07:28:47.826Z,12.33
2018-08-03T07:29:51.186Z,12.00
2018-08-03T07:30:54.523Z,11.47
2018-08-03T07:31:57.947Z,12.90
2018-08-03T07:33:01.411Z,12.63
2018-08-03T07:34:04.751Z,13.10
2018-08-03T07:35:08.094Z,13.37
2018-08-03T07:36:11.444Z,14.30
2018-08-03T07:37:14.887Z,12.63
2018-08-03T07:38:18.198Z,10.93
2018-08-03T07:39:21.514Z,12.00
2018-08-03T07:40:24.886Z,12.20
2018-08-03T07:41:28.234Z,10.50
2018-08-03T07:42:31.576Z,12.00
2018-08-03T07:43:35.013Z,10.70
2018-08-03T07:44:38.315Z,12.23
2018-08-03T07:45:41.623Z,11.00
2018-08-03T07:46:44.942Z,10.70
2018-08-03T07:47:48.283Z,11.60
2018-08-03T07:48:51.639Z,13.67
2018-08-03T07:49:54.990Z,14.50
2018-08-03T07:50:58.304Z,11.07
2018-08-03T07:52:01.642Z,10.30
2018-08-03T07:53:04.967Z,10.97
2018-08-03T07:54:08.431Z,16.10
2018-08-03T07:55:18.456Z,18.60
2018-08-03T07:56:21.762Z,9.97
2018-08-03T07:57:25.082Z,10.93
2018-08-03T07:58:28.656Z,19.53
2018-08-03T07:59:32.002Z,10.37
2018-08-03T08:00:35.329Z,9.70
2018-08-03T08:01:38.649Z,12.10
2018-08-03T08:02:42.006Z,9.83
2018-08-03T08:03:45.312Z,9.60
2018-08-03T08:04:48.643Z,12.20
2018-08-03T08:05:52.027Z,11.73
2018-08-03T08:06:55.368Z,15.63
2018-08-03T08:07:58.705Z,11.10
2018-08-03T08:09:02.519Z,9.23
2018-08-03T08:10:05.923Z,12.67
2018-08-03T08:11:09.322Z,8.30
2018-08-03T08:12:12.647Z,11.30
2018-08-03T08:13:16.211Z,10.83
2018-08-03T08:14:19.548Z,9.87
2018-08-03T08:15:22.884Z,9.43
2018-08-03T08:16:26.238Z,13.10
2018-08-03T08:17:29.547Z,11.20
2018-08-03T08:18:32.915Z,11.40
2018-08-03T08:19:36.235Z,11.00
2018-08-03T08:20:39.607Z,13.50
2018-08-03T08:21:42.919Z,10.80
2018-08-03T08:22:46.268Z,17.73
2018-08-03T08:23:49.322Z,19.77
2018-08-03T08:24:52.698Z,10.90
2018-08-03T08:25:56.054Z,8.80
2018-08-03T08:26:59.422Z,8.67
2018-08-03T08:28:02.779Z,8.43
2018-08-03T08:29:06.348Z,9.07
2018-08-03T08:30:09.724Z,8.00
2018-08-03T08:31:13.078Z,8.27
2018-08-03T08:32:16.410Z,9.80
2018-08-03T08:33:19.738Z,9.60
2018-08-03T08:34:23.227Z,11.43
2018-08-03T08:35:26.553Z,7.97
2018-08-03T08:36:29.922Z,9.13
2018-08-03T08:37:33.248Z,11.37
2018-08-03T08:38:36.574Z,7.60
2018-08-03T08:39:39.943Z,8.57
2018-08-03T08:40:43.255Z,8.00
2018-08-03T08:41:46.587Z,8.53
2018-08-03T08:42:49.942Z,8.73
2018-08-03T08:43:53.784Z,8.30
2018-08-03T08:44:57.057Z,12.20
2018-08-03T08:46:00.390Z,8.37
2018-08-03T08:47:03.780Z,14.00
2018-08-03T08:48:07.151Z,11.97
2018-08-03T08:49:10.607Z,10.60
2018-08-03T08:50:13.939Z,10.07
2018-08-03T08:51:17.311Z,7.13
2018-08-03T08:52:20.633Z,7.63
2018-08-03T08:53:23.965Z,7.37
2018-08-03T08:54:27.294Z,11.50
2018-08-03T08:55:30.624Z,10.63
2018-08-03T08:56:33.998Z,12.50
2018-08-03T08:57:37.311Z,6.73
2018-08-03T08:58:40.642Z,11.23
2018-08-03T08:59:44.024Z,8.93
2018-08-03T09:00:47.355Z,6.97
2018-08-03T09:01:50.735Z,7.57
2018-08-03T09:02:54.080Z,7.50
2018-08-03T09:03:57.412Z,7.37
2018-08-03T09:05:00.747Z,8.43
2018-08-03T09:06:04.087Z,8.87
2018-08-03T09:07:07.402Z,9.60
2018-08-03T09:08:10.728Z,7.60
2018-08-03T09:09:14.095Z,6.53
2018-08-03T09:10:17.491Z,6.43
2018-08-03T09:11:20.824Z,10.73
2018-08-03T09:12:24.134Z,6.43
2018-08-03T09:13:27.737Z,7.93
2018-08-03T09:14:31.094Z,12.80
2018-08-03T09:15:34.427Z,6.87
2018-08-03T09:16:37.905Z,9.63
2018-08-03T09:17:41.243Z,7.60
2018-08-03T09:18:44.665Z,6.63
2018-08-03T09:19:47.999Z,5.80
2018-08-03T09:20:51.324Z,9.00
2018-08-03T09:21:54.682Z,6.83
2018-08-03T09:22:58.011Z,8.97
2018-08-03T09:24:01.336Z,6.17
2018-08-03T09:25:04.747Z,7.43
2018-08-03T09:26:08.088Z,8.73
2018-08-03T09:27:11.459Z,5.93
2018-08-03T09:28:14.793Z,6.30
2018-08-03T09:29:18.103Z,6.37
2018-08-03T09:30:21.419Z,6.03
2018-08-03T09:31:24.777Z,6.67
2018-08-03T09:32:28.076Z,9.43
2018-08-03T09:33:31.434Z,7.87
2018-08-03T09:34:34.746Z,5.10
2018-08-03T09:35:38.067Z,6.33
2018-08-03T09:36:41.366Z,5.97
2018-08-03T09:37:44.748Z,7.37
2018-08-03T09:38:48.066Z,5.97
2018-08-03T09:39:51.490Z,9.23
2018-08-03T09:40:54.825Z,5.53
2018-08-03T09:41:58.159Z,5.67
2018-08-03T09:43:01.562Z,8.57
2018-08-03T09:44:04.914Z,5.67
2018-08-03T09:45:08.345Z,12.40
2018-08-03T09:46:11.650Z,5.60
2018-08-03T09:47:15.008Z,6.47
2018-08-03T09:48:18.328Z,6.80
2018-08-03T09:49:21.659Z,5.97
2018-08-03T09:50:24.987Z,5.67
2018-08-03T09:51:28.347Z,9.50
2018-08-03T09:52:31.639Z,8.17
2018-08-03T09:53:34.959Z,5.40
2018-08-03T09:54:38.285Z,5.67
2018-08-03T09:55:41.639Z,7.83
2018-08-03T09:56:45.011Z,4.53
2018-08-03T09:57:48.368Z,5.20
2018-08-03T09:58:51.722Z,7.77
2018-08-03T09:59:55.042Z,5.80
2018-08-03T10:01:03.766Z,8.40
2018-08-03T10:02:07.094Z,5.57
2018-08-03T10:03:10.476Z,6.80
2018-08-03T10:04:13.790Z,5.20
2018-08-03T10:05:17.110Z,7.27
2018-08-03T10:06:20.443Z,11.17
2018-08-03T10:07:23.849Z,5.53
2018-08-03T10:08:27.453Z,8.70
2018-08-03T10:09:30.787Z,5.33
2018-08-03T10:10:34.112Z,5.83
2018-08-03T10:11:37.465Z,5.63
2018-08-03T10:12:40.876Z,5.07
2018-08-03T10:13:44.182Z,5.13
2018-08-03T10:14:47.938Z,5.60
2018-08-03T10:15:51.301Z,5.30
2018-08-03T10:16:54.669Z,5.03
2018-08-03T10:17:57.982Z,6.00
2018-08-03T10:19:01.327Z,7.73
2018-08-03T10:20:05.243Z,5.07
2018-08-03T10:21:08.631Z,5.00
2018-08-03T10:22:11.986Z,6.37
2018-08-03T10:23:15.430Z,5.10
2018-08-03T10:24:18.754Z,6.40
2018-08-03T10:25:22.072Z,5.70
2018-08-03T10:26:25.386Z,5.27
2018-08-03T10:27:28.741Z,7.17
2018-08-03T10:28:32.044Z,6.57
2018-08-03T10:29:35.464Z,6.57
2018-08-03T10:30:38.782Z,5.10
2018-08-03T10:31:42.143Z,5.50
2018-08-03T10:32:45.475Z,6.20
2018-08-03T10:33:48.804Z,4.47
2018-08-03T10:34:52.171Z,5.73
2018-08-03T10:35:55.500Z,7.73
2018-08-03T10:36:58.818Z,5.80
2018-08-03T10:38:02.135Z,8.60
2018-08-03T10:39:07.432Z,10.43
2018-08-03T10:40:10.904Z,5.00
2018-08-03T10:41:14.231Z,6.83
2018-08-03T10:42:17.597Z,5.30
2018-08-03T10:43:20.931Z,4.77
2018-08-03T10:44:24.303Z,4.60
2018-08-03T10:45:27.651Z,5.43
2018-08-03T10:46:30.954Z,5.90
2018-08-03T10:47:34.283Z,7.00
2018-08-03T10:48:37.672Z,6.03
2018-08-03T10:49:40.980Z,4.87
2018-08-03T10:50:44.420Z,5.57
2018-08-03T10:51:47.755Z,6.60
2018-08-03T10:52:51.086Z,4.20
2018-08-03T10:53:54.461Z,6.43
2018-08-03T10:54:57.808Z,5.07
2018-08-03T10:56:01.131Z,5.13
2018-08-03T10:57:04.478Z,6.43
2018-08-03T10:58:07.808Z,6.33
2018-08-03T10:59:11.208Z,4.47
2018-08-03T11:01:48.568Z,9.40
2018-08-03T11:02:52.099Z,4.13
2018-08-03T11:03:55.419Z,4.40
2018-08-03T11:04:58.766Z,4.47
2018-08-03T11:06:02.091Z,5.70
2018-08-03T11:07:05.458Z,5.53
2018-08-03T11:08:08.771Z,5.40
2018-08-03T11:09:12.126Z,4.93
2018-08-03T11:10:16.127Z,5.90
2018-08-03T11:11:19.443Z,5.27
2018-08-03T11:12:22.758Z,5.70
2018-08-03T11:13:26.123Z,5.37
2018-08-03T11:14:29.443Z,4.60
2018-08-03T11:15:32.759Z,4.70
2018-08-03T11:16:36.239Z,6.10
2018-08-03T11:17:39.553Z,5.47
2018-08-03T11:18:42.866Z,4.27
2018-08-03T11:19:46.182Z,4.37
2018-08-03T11:20:49.666Z,9.40
2018-08-03T11:21:53.092Z,4.53
2018-08-03T11:22:56.419Z,4.77
2018-08-03T11:23:59.780Z,4.83
2018-08-03T11:25:03.171Z,4.60
2018-08-03T11:26:06.479Z,9.13
2018-08-03T11:27:09.779Z,4.30
2018-08-03T11:28:13.100Z,5.30
2018-08-03T11:29:16.470Z,4.87
2018-08-03T11:30:19.782Z,5.17
2018-08-03T11:31:23.098Z,7.00
2018-08-03T11:32:26.389Z,6.30
2018-08-03T11:33:29.735Z,4.10
2018-08-03T11:34:33.099Z,4.87
2018-08-03T11:35:36.423Z,6.27
2018-08-03T11:36:39.920Z,4.33
2018-08-03T11:37:43.226Z,7.60
2018-08-03T11:38:46.576Z,7.83
2018-08-03T11:39:49.887Z,7.07
2018-08-03T11:40:53.303Z,4.80
2018-08-03T11:41:56.562Z,5.30
2018-08-03T11:42:59.906Z,4.50
2018-08-03T11:44:03.263Z,4.00
2018-08-03T11:45:08.372Z,4.00
2018-08-03T11:46:11.751Z,6.27
2018-08-03T11:47:15.070Z,4.40
2018-08-03T11:48:18.451Z,4.93
2018-08-03T11:49:21.734Z,6.10
2018-08-03T11:50:25.046Z,4.80
2018-08-03T11:51:28.418Z,12.03
2018-08-03T11:52:31.726Z,6.60
2018-08-03T11:53:35.062Z,4.17
2018-08-03T11:54:38.414Z,5.20
2018-08-03T11:55:41.737Z,4.80
2018-08-03T11:56:45.087Z,5.87
2018-08-03T11:57:48.408Z,8.60
2018-08-03T12:00:01.372Z,5.43
2018-08-03T12:01:04.691Z,4.37
2018-08-03T12:02:08.059Z,5.63
2018-08-03T12:03:11.402Z,4.80
2018-08-03T12:04:14.726Z,5.07
2018-08-03T12:05:18.053Z,5.70
2018-08-03T12:06:21.470Z,5.60
2018-08-03T12:07:24.747Z,5.80
2018-08-03T12:08:28.088Z,8.13
2018-08-03T12:09:31.446Z,6.67
2018-08-03T12:10:34.764Z,6.43
2018-08-03T12:11:38.106Z,3.80
2018-08-03T12:12:41.427Z,5.47
2018-08-03T12:13:44.786Z,5.10
2018-08-03T12:14:48.138Z,3.90
2018-08-03T12:15:51.461Z,4.10
2018-08-03T12:16:54.782Z,5.00
2018-08-03T12:17:58.169Z,7.07
2018-08-03T12:19:01.479Z,4.30
2018-08-03T12:20:04.876Z,4.93
2018-08-03T12:21:08.238Z,4.80
2018-08-03T12:22:11.604Z,10.63
2018-08-03T12:23:15.071Z,4.63
2018-08-03T12:24:18.382Z,3.80
2018-08-03T12:25:21.793Z,4.50
2018-08-03T12:26:25.148Z,4.30
2018-08-03T12:27:28.489Z,4.50
2018-08-03T12:28:31.821Z,9.13
2018-08-03T12:29:35.162Z,4.70
2018-08-03T12:30:38.529Z,4.20
2018-08-03T12:31:41.891Z,4.50
2018-08-03T12:32:45.134Z,6.63
2018-08-03T12:33:48.483Z,6.80
2018-08-03T12:34:51.802Z,4.40
2018-08-03T12:35:55.119Z,9.23
2018-08-03T12:36:58.472Z,5.33
2018-08-03T12:38:08.231Z,5.33
2018-08-03T12:39:11.898Z,5.73
2018-08-03T12:40:15.200Z,4.53
2018-08-03T12:41:18.540Z,5.07
2018-08-03T12:42:21.851Z,4.60
2018-08-03T12:43:25.240Z,6.83
2018-08-03T12:44:28.522Z,5.90
2018-08-03T12:45:34.145Z,5.87
2018-08-03T12:46:35.215Z,5.10
2018-08-03T12:47:38.539Z,4.20
2018-08-03T12:48:41.878Z,6.13
2018-08-03T12:49:45.195Z,5.37
2018-08-03T12:50:48.506Z,4.20
2018-08-03T12:51:51.825Z,4.40
2018-08-03T12:52:55.349Z,5.07
2018-08-03T12:53:58.693Z,5.70
2018-08-03T12:55:01.994Z,6.27
2018-08-03T12:56:05.315Z,7.80
2018-08-03T12:57:08.674Z,7.20
2018-08-03T12:58:11.977Z,5.27
2018-08-03T12:59:15.010Z,3.93
2018-08-03T13:00:18.346Z,4.60
2018-08-03T13:01:21.795Z,4.40
2018-08-03T13:02:25.140Z,5.10
2018-08-03T13:03:28.477Z,4.33
2018-08-03T13:04:31.779Z,4.10
2018-08-03T13:05:35.094Z,7.00
2018-08-03T13:06:38.442Z,4.17
2018-08-03T13:07:41.858Z,7.27
2018-08-03T13:08:45.115Z,6.20
2018-08-03T13:09:48.429Z,4.93
2018-08-03T13:10:51.760Z,4.10
2018-08-03T13:11:55.161Z,5.53
2018-08-03T13:12:58.471Z,5.83
2018-08-03T13:14:08.259Z,5.33
2018-08-03T13:15:11.574Z,7.53
2018-08-03T13:16:14.903Z,8.33
2018-08-03T13:17:18.364Z,5.23
2018-08-03T13:18:21.691Z,4.93
2018-08-03T13:19:25.026Z,4.50
2018-08-03T13:20:28.331Z,7.20
2018-08-03T13:21:37.091Z,8.23
2018-08-03T13:22:40.461Z,4.80
2018-08-03T13:23:51.383Z,4.80
2018-08-03T13:24:54.722Z,7.00
2018-08-03T13:25:58.035Z,7.33
2018-08-03T13:27:01.380Z,4.43
2018-08-03T13:28:04.793Z,5.07
2018-08-03T13:29:08.095Z,4.07
2018-08-03T13:30:11.418Z,5.67
2018-08-03T13:31:14.742Z,4.60
2018-08-03T13:32:18.063Z,7.37
2018-08-03T13:33:21.422Z,4.13
2018-08-03T13:34:24.747Z,6.53
2018-08-03T13:35:28.068Z,8.47
2018-08-03T13:36:31.712Z,4.20
2018-08-03T13:37:35.081Z,5.67
2018-08-03T13:38:38.411Z,4.70
2018-08-03T13:39:41.744Z,7.27
2018-08-03T13:40:45.075Z,5.03
2018-08-03T13:41:48.431Z,5.40
2018-08-03T13:42:51.815Z,4.10
2018-08-03T13:43:55.121Z,7.53
2018-08-03T13:44:58.538Z,7.30
2018-08-03T13:46:02.227Z,4.57
2018-08-03T13:47:05.884Z,4.50
2018-08-03T13:48:09.211Z,4.43
2018-08-03T13:49:12.530Z,6.10
2018-08-03T13:50:15.879Z,4.23